createdAt,value
2024-02-29T00:00:25.717Z,694.00
2024-02-29T00:01:25.863Z,709.00
2024-02-29T00:02:25.877Z,696.00
2024-02-29T00:03:25.944Z,702.00
2024-02-29T00:04:26.045Z,696.00
2024-02-29T00:05:26.101Z,685.00
2024-02-29T00:06:26.188Z,696.00
2024-02-29T00:07:26.262Z,691.00
2024-02-29T00:08:26.387Z,698.00
2024-02-29T00:09:26.412Z,700.00
2024-02-29T00:10:26.523Z,687.00
2024-02-29T00:11:26.595Z,695.00
2024-02-29T00:12:26.651Z,701.00
2024-02-29T00:13:26.764Z,698.00
2024-02-29T00:14:26.815Z,698.00
2024-02-29T00:15:26.906Z,695.00
2024-02-29T00:16:26.983Z,688.00
2024-02-29T00:17:27.089Z,701.00
2024-02-29T00:18:27.140Z,691.00
2024-02-29T00:19:27.234Z,685.00
2024-02-29T00:20:27.309Z,688.00
2024-02-29T00:21:27.402Z,697.00
2024-02-29T00:22:27.478Z,697.00
2024-02-29T00:23:27.549Z,695.00
2024-02-29T00:24:27.789Z,693.00
2024-02-29T00:25:27.703Z,688.00
2024-02-29T00:26:27.785Z,702.00
2024-02-29T00:27:28.036Z,692.00
2024-02-29T00:28:27.956Z,696.00
2024-02-29T00:29:28.038Z,691.00
2024-02-29T00:30:28.197Z,690.00
2024-02-29T00:31:28.197Z,685.00
2024-02-29T00:32:28.320Z,686.00
2024-02-29T00:33:28.391Z,682.00
2024-02-29T00:34:28.452Z,690.00
2024-02-29T00:35:28.537Z,693.00
2024-02-29T00:36:28.698Z,691.00
2024-02-29T00:37:28.680Z,683.00
2024-02-29T00:38:28.740Z,682.00
2024-02-29T00:39:28.862Z,685.00
2024-02-29T00:40:28.896Z,692.00
2024-02-29T00:41:28.970Z,681.00
2024-02-29T00:42:29.101Z,687.00
2024-02-29T00:43:29.147Z,681.00
2024-02-29T00:44:29.247Z,687.00
2024-02-29T00:45:29.309Z,679.00
2024-02-29T00:46:29.382Z,680.00
2024-02-29T00:47:29.478Z,684.00
2024-02-29T00:48:29.575Z,684.00
2024-02-29T00:49:29.620Z,683.00
2024-02-29T00:50:29.695Z,674.00
2024-02-29T00:51:29.997Z,685.00
2024-02-29T00:52:29.866Z,669.00
2024-02-29T00:53:29.937Z,675.00
2024-02-29T00:54:30.051Z,683.00
2024-02-29T00:55:30.099Z,686.00
2024-02-29T00:56:30.186Z,677.00
2024-02-29T00:57:30.291Z,685.00
2024-02-29T00:58:30.353Z,679.00
2024-02-29T00:59:30.443Z,683.00
2024-02-29T01:00:30.574Z,682.00
2024-02-29T01:01:30.877Z,681.00
2024-02-29T01:02:30.683Z,670.00
2024-02-29T01:03:33.313Z,674.00
2024-02-29T01:04:30.799Z,675.00
2024-02-29T01:05:30.816Z,675.00
2024-02-29T01:06:30.878Z,675.00
2024-02-29T01:07:30.837Z,673.00
2024-02-29T01:08:30.850Z,677.00
2024-02-29T01:09:30.950Z,682.00
2024-02-29T01:10:30.907Z,675.00
2024-02-29T01:11:30.957Z,674.00
2024-02-29T01:12:30.959Z,682.00
2024-02-29T01:13:30.934Z,678.00
2024-02-29T01:14:30.945Z,675.00
2024-02-29T01:15:30.993Z,679.00
2024-02-29T01:16:30.973Z,667.00
2024-02-29T01:17:31.001Z,672.00
2024-02-29T01:18:30.996Z,678.00
2024-02-29T01:19:31.012Z,681.00
2024-02-29T01:20:31.032Z,668.00
2024-02-29T01:21:31.163Z,676.00
2024-02-29T01:22:31.175Z,670.00
2024-02-29T01:23:31.261Z,666.00
2024-02-29T01:24:31.358Z,672.00
2024-02-29T01:25:31.412Z,667.00
2024-02-29T01:26:31.507Z,671.00
2024-02-29T01:27:31.604Z,668.00
2024-02-29T01:28:31.672Z,669.00
2024-02-29T01:29:31.747Z,676.00
2024-02-29T01:30:31.870Z,673.00
2024-02-29T01:31:31.913Z,664.00
2024-02-29T01:32:35.287Z,666.00
2024-02-29T01:33:33.027Z,667.00
2024-02-29T01:34:32.038Z,667.00
2024-02-29T01:35:32.057Z,667.00
2024-02-29T01:36:32.072Z,669.00
2024-02-29T01:37:32.090Z,678.00
2024-02-29T01:38:32.092Z,669.00
2024-02-29T01:39:32.131Z,665.00
2024-02-29T01:40:32.157Z,663.00
2024-02-29T01:41:32.203Z,663.00
2024-02-29T01:42:32.308Z,662.00
2024-02-29T01:43:32.384Z,666.00
2024-02-29T01:44:32.464Z,659.00
2024-02-29T01:45:32.699Z,664.00
2024-02-29T01:46:32.684Z,663.00
2024-02-29T01:47:32.730Z,665.00
2024-02-29T01:48:32.842Z,664.00
2024-02-29T01:49:32.893Z,662.00
2024-02-29T01:50:33.011Z,664.00
2024-02-29T01:51:33.115Z,663.00
2024-02-29T01:52:33.157Z,664.00
2024-02-29T01:53:34.671Z,663.00
2024-02-29T01:54:33.362Z,664.00
2024-02-29T01:55:33.415Z,665.00
2024-02-29T01:56:33.488Z,664.00
2024-02-29T01:57:33.628Z,658.00
2024-02-29T01:58:33.641Z,660.00
2024-02-29T01:59:33.728Z,663.00
2024-02-29T02:00:33.831Z,661.00
2024-02-29T02:01:33.908Z,660.00
2024-02-29T02:02:33.919Z,663.00
2024-02-29T02:03:34.050Z,662.00
2024-02-29T02:04:34.056Z,661.00
2024-02-29T02:05:34.120Z,663.00
2024-02-29T02:06:34.202Z,660.00
2024-02-29T02:07:34.225Z,663.00
2024-02-29T02:08:34.285Z,664.00
2024-02-29T02:09:34.364Z,660.00
2024-02-29T02:10:34.398Z,660.00
2024-02-29T02:11:34.462Z,662.00
2024-02-29T02:12:34.602Z,661.00
2024-02-29T02:13:34.635Z,658.00
2024-02-29T02:14:34.729Z,662.00
2024-02-29T02:15:34.828Z,659.00
2024-02-29T02:16:34.908Z,659.00
2024-02-29T02:17:35.026Z,657.00
2024-02-29T02:18:35.124Z,657.00
2024-02-29T02:19:35.172Z,658.00
2024-02-29T02:20:35.252Z,655.00
2024-02-29T02:21:35.365Z,660.00
2024-02-29T02:22:35.410Z,658.00
2024-02-29T02:23:35.494Z,654.00
2024-02-29T02:24:35.737Z,657.00
2024-02-29T02:25:35.651Z,660.00
2024-02-29T02:26:35.737Z,657.00
2024-02-29T02:27:35.864Z,659.00
2024-02-29T02:28:35.919Z,657.00
2024-02-29T02:29:36.013Z,659.00
2024-02-29T02:30:36.129Z,660.00
2024-02-29T02:31:36.180Z,657.00
2024-02-29T02:32:36.269Z,657.00
2024-02-29T02:33:36.383Z,659.00
2024-02-29T02:34:36.448Z,660.00
2024-02-29T02:35:36.539Z,660.00
2024-02-29T02:36:36.689Z,658.00
2024-02-29T02:37:36.692Z,657.00
2024-02-29T02:38:36.784Z,656.00
2024-02-29T02:39:36.890Z,658.00
2024-02-29T02:40:36.969Z,658.00
2024-02-29T02:41:37.059Z,657.00
2024-02-29T02:42:37.178Z,658.00
2024-02-29T02:43:37.199Z,658.00
2024-02-29T02:44:37.296Z,658.00
2024-02-29T02:45:37.388Z,658.00
2024-02-29T02:46:37.453Z,656.00
2024-02-29T02:47:37.576Z,655.00
2024-02-29T02:48:37.672Z,654.00
2024-02-29T02:49:37.734Z,655.00
2024-02-29T02:50:37.856Z,656.00
2024-02-29T02:51:37.889Z,654.00
2024-02-29T02:52:37.976Z,656.00
2024-02-29T02:53:38.048Z,659.00
2024-02-29T02:54:38.134Z,655.00
2024-02-29T02:55:38.209Z,650.00
2024-02-29T02:56:38.301Z,653.00
2024-02-29T02:57:38.416Z,653.00
2024-02-29T02:58:38.462Z,652.00
2024-02-29T02:59:38.570Z,655.00
2024-02-29T03:00:38.657Z,656.00
2024-02-29T03:01:38.753Z,655.00
2024-02-29T03:02:38.807Z,655.00
2024-02-29T03:03:38.863Z,652.00
2024-02-29T03:04:38.927Z,654.00
2024-02-29T03:05:38.962Z,651.00
2024-02-29T03:06:39.033Z,653.00
2024-02-29T03:07:39.100Z,653.00
2024-02-29T03:08:39.168Z,654.00
2024-02-29T03:09:39.281Z,656.00
2024-02-29T03:10:39.348Z,653.00
2024-02-29T03:11:39.425Z,654.00
2024-02-29T03:12:39.553Z,652.00
2024-02-29T03:13:39.613Z,649.00
2024-02-29T03:14:39.672Z,654.00
2024-02-29T03:15:39.761Z,655.00
2024-02-29T03:16:40.385Z,652.00
2024-02-29T03:17:39.900Z,653.00
2024-02-29T03:18:39.942Z,654.00
2024-02-29T03:19:39.979Z,654.00
2024-02-29T03:20:40.051Z,653.00
2024-02-29T03:21:40.109Z,653.00
2024-02-29T03:22:40.108Z,652.00
2024-02-29T03:23:40.175Z,650.00
2024-02-29T03:24:40.315Z,653.00
2024-02-29T03:25:40.468Z,652.00
2024-02-29T03:26:40.465Z,651.00
2024-02-29T03:27:40.617Z,651.00
2024-02-29T03:28:40.831Z,653.00
2024-02-29T03:29:40.641Z,650.00
2024-02-29T03:30:40.746Z,648.00
2024-02-29T03:31:40.791Z,651.00
2024-02-29T03:32:40.903Z,652.00
2024-02-29T03:33:41.020Z,654.00
2024-02-29T03:34:41.032Z,653.00
2024-02-29T03:35:41.117Z,652.00
2024-02-29T03:36:41.241Z,653.00
2024-02-29T03:37:41.274Z,651.00
2024-02-29T03:38:41.388Z,648.00
2024-02-29T03:39:41.461Z,650.00
2024-02-29T03:40:41.538Z,650.00
2024-02-29T03:41:41.622Z,650.00
2024-02-29T03:42:41.718Z,649.00
2024-02-29T03:43:41.795Z,653.00
2024-02-29T03:44:41.897Z,649.00
2024-02-29T03:45:41.968Z,651.00
2024-02-29T03:46:42.039Z,650.00
2024-02-29T03:47:42.164Z,648.00
2024-02-29T03:48:42.252Z,650.00
2024-02-29T03:49:42.324Z,650.00
2024-02-29T03:50:42.400Z,648.00
2024-02-29T03:51:42.541Z,650.00
2024-02-29T03:52:42.583Z,647.00
2024-02-29T03:53:42.688Z,651.00
2024-02-29T03:54:42.779Z,650.00
2024-02-29T03:55:42.862Z,651.00
2024-02-29T03:56:42.961Z,647.00
2024-02-29T03:57:43.044Z,652.00
2024-02-29T03:58:43.111Z,651.00
2024-02-29T03:59:43.211Z,649.00
2024-02-29T04:00:43.325Z,648.00
2024-02-29T04:01:43.454Z,649.00
2024-02-29T04:02:43.458Z,645.00
2024-02-29T04:03:43.569Z,646.00
2024-02-29T04:04:43.642Z,649.00
2024-02-29T04:05:43.774Z,644.00
2024-02-29T04:06:43.917Z,645.00
2024-02-29T04:07:43.916Z,644.00
2024-02-29T04:08:43.983Z,645.00
2024-02-29T04:09:44.122Z,645.00
2024-02-29T04:10:44.186Z,644.00
2024-02-29T04:11:44.208Z,641.00
2024-02-29T04:12:44.306Z,639.00
2024-02-29T04:13:44.364Z,645.00
2024-02-29T04:14:44.446Z,642.00
2024-02-29T04:15:47.210Z,643.00
2024-02-29T04:16:44.542Z,643.00
2024-02-29T04:17:44.588Z,642.00
2024-02-29T04:18:44.613Z,641.00
2024-02-29T04:19:44.592Z,643.00
2024-02-29T04:20:44.593Z,640.00
2024-02-29T04:21:44.642Z,641.00
2024-02-29T04:22:44.604Z,640.00
2024-02-29T04:23:44.626Z,641.00
2024-02-29T04:24:44.725Z,638.00
2024-02-29T04:25:44.761Z,640.00
2024-02-29T04:26:44.859Z,644.00
2024-02-29T04:27:44.982Z,640.00
2024-02-29T04:28:44.977Z,639.00
2024-02-29T04:29:45.065Z,636.00
2024-02-29T04:30:45.201Z,642.00
2024-02-29T04:31:45.208Z,641.00
2024-02-29T04:32:45.292Z,636.00
2024-02-29T04:33:45.566Z,639.00
2024-02-29T04:34:45.432Z,639.00
2024-02-29T04:35:45.506Z,637.00
2024-02-29T04:36:45.591Z,639.00
2024-02-29T04:37:45.651Z,640.00
2024-02-29T04:38:52.891Z,600.00
2024-02-29T04:39:52.936Z,600.00
2024-02-29T04:40:52.846Z,600.00
2024-02-29T04:41:52.825Z,600.00
2024-02-29T04:42:52.850Z,600.00
2024-02-29T04:43:52.793Z,602.00
2024-02-29T04:44:52.810Z,606.00
2024-02-29T04:45:52.875Z,603.00
2024-02-29T04:46:52.744Z,602.00
2024-02-29T04:47:52.751Z,602.00
2024-02-29T04:48:52.726Z,603.00
2024-02-29T04:49:52.697Z,605.00
2024-02-29T04:50:52.690Z,601.00
2024-02-29T04:51:52.719Z,606.00
2024-02-29T04:52:52.649Z,605.00
2024-02-29T04:53:52.632Z,602.00
2024-02-29T04:54:52.668Z,600.00
2024-02-29T04:55:52.607Z,601.00
2024-02-29T04:56:52.610Z,605.00
2024-02-29T04:57:52.605Z,604.00
2024-02-29T04:58:52.586Z,603.00
2024-02-29T04:59:52.562Z,601.00
2024-02-29T05:00:52.655Z,602.00
2024-02-29T05:01:52.638Z,600.00
2024-02-29T05:02:52.538Z,605.00
2024-02-29T05:03:52.556Z,603.00
2024-02-29T05:04:52.503Z,603.00
2024-02-29T05:05:52.504Z,603.00
2024-02-29T05:06:52.532Z,603.00
2024-02-29T05:07:52.450Z,603.00
2024-02-29T05:08:52.433Z,606.00
2024-02-29T05:09:52.505Z,603.00
2024-02-29T05:10:52.433Z,605.00
2024-02-29T05:11:52.378Z,607.00
2024-02-29T05:12:52.370Z,606.00
2024-02-29T05:13:52.357Z,603.00
2024-02-29T05:14:52.336Z,604.00
2024-02-29T05:15:52.360Z,600.00
2024-02-29T05:16:52.309Z,604.00
2024-02-29T05:17:52.315Z,603.00
2024-02-29T05:18:52.315Z,606.00
2024-02-29T05:19:52.260Z,605.00
2024-02-29T05:20:52.242Z,605.00
2024-02-29T05:21:52.281Z,603.00
2024-02-29T05:22:52.295Z,602.00
2024-02-29T05:23:52.314Z,602.00
2024-02-29T05:24:52.343Z,605.00
2024-02-29T05:25:52.371Z,602.00
2024-02-29T05:26:52.288Z,600.00
2024-02-29T05:27:52.361Z,603.00
2024-02-29T05:28:52.312Z,603.00
2024-02-29T05:29:52.327Z,600.00
2024-02-29T05:30:52.379Z,604.00
2024-02-29T05:31:52.373Z,605.00
2024-02-29T05:32:52.517Z,602.00
2024-02-29T05:33:52.403Z,604.00
2024-02-29T05:34:52.408Z,601.00
2024-02-29T05:35:52.468Z,602.00
2024-02-29T05:36:52.475Z,603.00
2024-02-29T05:37:52.503Z,602.00
2024-02-29T05:38:52.533Z,604.00
2024-02-29T05:39:52.628Z,602.00
2024-02-29T05:40:52.702Z,600.00
2024-02-29T05:41:52.684Z,603.00
2024-02-29T05:42:52.737Z,601.00
2024-02-29T05:43:52.753Z,604.00
2024-02-29T05:44:52.792Z,603.00
2024-02-29T05:45:52.816Z,604.00
2024-02-29T05:46:52.797Z,603.00
2024-02-29T05:47:52.880Z,600.00
2024-02-29T05:48:53.015Z,601.00
2024-02-29T05:49:52.924Z,603.00
2024-02-29T05:50:52.972Z,606.00
2024-02-29T05:51:53.057Z,601.00
2024-02-29T05:52:53.069Z,603.00
2024-02-29T05:53:53.098Z,605.00
2024-02-29T05:54:53.148Z,606.00
2024-02-29T05:55:53.149Z,604.00
2024-02-29T05:56:53.210Z,601.00
2024-02-29T05:57:53.275Z,601.00
2024-02-29T05:58:53.254Z,605.00
2024-02-29T05:59:53.274Z,600.00
2024-02-29T06:00:53.385Z,604.00
2024-02-29T06:01:53.496Z,602.00
2024-02-29T06:02:53.513Z,603.00
2024-02-29T06:03:53.515Z,602.00
2024-02-29T06:04:53.605Z,601.00
2024-02-29T06:05:53.561Z,601.00
2024-02-29T06:06:53.671Z,605.00
2024-02-29T06:07:53.653Z,606.00
2024-02-29T06:08:53.706Z,602.00
2024-02-29T06:09:53.862Z,600.00
2024-02-29T06:10:53.854Z,602.00
2024-02-29T06:11:53.851Z,604.00
2024-02-29T06:12:53.921Z,605.00
2024-02-29T06:13:53.928Z,605.00
2024-02-29T06:14:53.985Z,603.00
2024-02-29T06:15:54.060Z,605.00
2024-02-29T06:16:54.106Z,606.00
2024-02-29T06:17:54.180Z,604.00
2024-02-29T06:18:54.235Z,601.00
2024-02-29T06:19:54.256Z,601.00
2024-02-29T06:20:54.408Z,601.00
2024-02-29T06:21:54.408Z,600.00
2024-02-29T06:22:54.441Z,603.00
2024-02-29T06:23:54.463Z,601.00
2024-02-29T06:24:54.579Z,601.00
2024-02-29T06:25:54.575Z,600.00
2024-02-29T06:26:54.621Z,600.00
2024-02-29T06:27:54.762Z,607.00
2024-02-29T06:28:54.768Z,607.00
2024-02-29T06:29:54.803Z,601.00
2024-02-29T06:30:54.881Z,603.00
2024-02-29T06:31:54.909Z,604.00
2024-02-29T06:32:54.960Z,603.00
2024-02-29T06:33:55.048Z,600.00
2024-02-29T06:34:55.058Z,600.00
2024-02-29T06:35:55.117Z,602.00
2024-02-29T06:36:55.184Z,602.00
2024-02-29T06:37:55.980Z,601.00
2024-02-29T06:38:55.270Z,601.00
2024-02-29T06:39:55.403Z,603.00
2024-02-29T06:40:55.376Z,603.00
2024-02-29T06:41:55.428Z,606.00
2024-02-29T06:42:55.500Z,604.00
2024-02-29T06:43:56.060Z,605.00
2024-02-29T06:44:55.566Z,604.00
2024-02-29T06:45:55.631Z,604.00
2024-02-29T06:46:55.650Z,602.00
2024-02-29T06:47:55.739Z,602.00
2024-02-29T06:48:55.804Z,604.00
2024-02-29T06:49:55.846Z,605.00
2024-02-29T06:50:55.833Z,601.00
2024-02-29T06:51:55.881Z,601.00
2024-02-29T06:52:55.883Z,602.00
2024-02-29T06:53:55.963Z,604.00
2024-02-29T06:54:56.032Z,604.00
2024-02-29T06:55:56.029Z,604.00
2024-02-29T06:56:56.088Z,602.00
2024-02-29T06:57:56.104Z,603.00
2024-02-29T06:58:56.084Z,602.00
2024-02-29T06:59:56.107Z,602.00
2024-02-29T07:00:56.200Z,600.00
2024-02-29T07:01:56.210Z,604.00
2024-02-29T07:02:56.186Z,606.00
2024-02-29T07:03:56.281Z,608.00
2024-02-29T07:04:56.284Z,604.00
2024-02-29T07:05:56.330Z,604.00
2024-02-29T07:06:56.434Z,602.00
2024-02-29T07:07:56.449Z,604.00
2024-02-29T07:08:56.462Z,604.00
2024-02-29T07:09:56.566Z,603.00
2024-02-29T07:10:58.287Z,606.00
2024-02-29T07:11:56.544Z,605.00
2024-02-29T07:12:57.197Z,606.00
2024-02-29T07:13:56.517Z,607.00
2024-02-29T07:14:56.484Z,606.00
2024-02-29T07:15:56.498Z,605.00
2024-02-29T07:16:56.476Z,607.00
2024-02-29T07:17:56.426Z,605.00
2024-02-29T07:18:56.432Z,606.00
2024-02-29T07:19:56.348Z,603.00
2024-02-29T07:20:56.320Z,607.00
2024-02-29T07:21:56.320Z,606.00
2024-02-29T07:22:56.650Z,605.00
2024-02-29T07:23:56.245Z,603.00
2024-02-29T07:24:56.327Z,606.00
2024-02-29T07:25:56.189Z,605.00
2024-02-29T07:26:56.159Z,605.00
2024-02-29T07:27:56.203Z,605.00
2024-02-29T07:28:56.095Z,606.00
2024-02-29T07:29:56.064Z,606.00
2024-02-29T07:30:56.078Z,605.00
2024-02-29T07:31:56.015Z,607.00
2024-02-29T07:32:56.124Z,608.00
2024-02-29T07:33:56.008Z,610.00
2024-02-29T07:34:55.957Z,610.00
2024-02-29T07:35:56.569Z,608.00
2024-02-29T07:36:55.960Z,609.00
2024-02-29T07:37:55.901Z,606.00
2024-02-29T07:38:55.892Z,608.00
2024-02-29T07:39:55.920Z,606.00
2024-02-29T07:40:55.863Z,607.00
2024-02-29T07:41:55.919Z,607.00
2024-02-29T07:42:56.615Z,609.00
2024-02-29T07:43:56.012Z,609.00
2024-02-29T07:44:56.104Z,607.00
2024-02-29T07:45:56.138Z,609.00
2024-02-29T07:46:56.141Z,606.00
2024-02-29T07:47:56.272Z,606.00
2024-02-29T07:48:56.322Z,609.00
2024-02-29T07:49:56.273Z,608.00
2024-02-29T07:50:56.382Z,606.00
2024-02-29T07:51:56.399Z,608.00
2024-02-29T07:52:56.400Z,608.00
2024-02-29T07:53:56.494Z,611.00
2024-02-29T07:54:56.511Z,609.00
2024-02-29T07:55:56.525Z,609.00
2024-02-29T07:56:56.573Z,610.00
2024-02-29T07:57:56.632Z,608.00
2024-02-29T07:58:57.595Z,609.00
2024-02-29T07:59:56.699Z,608.00
2024-02-29T08:00:56.778Z,611.00
2024-02-29T08:01:56.955Z,608.00
2024-02-29T08:02:56.829Z,607.00
2024-02-29T08:03:56.922Z,608.00
2024-02-29T08:04:56.902Z,609.00
2024-02-29T08:05:56.946Z,608.00
2024-02-29T08:06:57.001Z,609.00
2024-02-29T08:07:57.023Z,609.00
2024-02-29T08:08:57.069Z,610.00
2024-02-29T08:09:57.109Z,609.00
2024-02-29T08:10:57.127Z,610.00
2024-02-29T08:11:57.265Z,611.00
2024-02-29T08:12:57.398Z,610.00
2024-02-29T08:13:57.216Z,610.00
2024-02-29T08:14:57.302Z,610.00
2024-02-29T08:15:57.325Z,611.00
2024-02-29T08:16:57.326Z,612.00
2024-02-29T08:17:57.432Z,611.00
2024-02-29T08:18:57.443Z,610.00
2024-02-29T08:19:57.569Z,603.00
2024-02-29T08:20:57.458Z,606.00
2024-02-29T08:21:57.542Z,606.00
2024-02-29T08:22:57.518Z,602.00
2024-02-29T08:23:57.528Z,605.00
2024-02-29T08:24:57.577Z,607.00
2024-02-29T08:25:57.545Z,620.00
2024-02-29T08:26:57.542Z,630.00
2024-02-29T08:27:57.559Z,640.00
2024-02-29T08:28:57.533Z,654.00
2024-02-29T08:29:57.516Z,669.00
2024-02-29T08:30:57.553Z,707.00
2024-02-29T08:31:57.533Z,730.00
2024-02-29T08:32:57.496Z,764.00
2024-02-29T08:33:57.502Z,798.00
2024-02-29T08:34:57.433Z,824.00
2024-02-29T08:35:57.408Z,860.00
2024-02-29T08:36:57.406Z,880.00
2024-02-29T08:37:58.159Z,901.00
2024-02-29T08:38:57.329Z,927.00
2024-02-29T08:39:57.343Z,951.00
2024-02-29T08:40:57.262Z,967.00
2024-02-29T08:41:57.259Z,989.00
2024-02-29T08:42:57.313Z,1005.00
2024-02-29T08:43:57.226Z,1024.00
2024-02-29T08:44:57.200Z,1042.00
2024-02-29T08:45:57.189Z,1060.00
2024-02-29T08:46:57.105Z,1085.00
2024-02-29T08:47:57.144Z,1093.00
2024-02-29T08:48:58.176Z,1108.00
2024-02-29T08:49:57.078Z,1126.00
2024-02-29T08:50:57.055Z,1133.00
2024-02-29T08:51:57.081Z,1144.00
2024-02-29T08:52:57.053Z,1148.00
2024-02-29T08:53:57.141Z,1138.00
2024-02-29T08:55:18.110Z,1132.00
2024-02-29T08:55:57.027Z,1133.00
2024-02-29T08:56:56.976Z,1133.00
2024-02-29T08:57:56.962Z,1083.00
2024-02-29T08:58:56.924Z,1033.00
2024-02-29T08:59:56.912Z,967.00
2024-02-29T09:00:57.050Z,919.00
2024-02-29T09:01:57.024Z,872.00
2024-02-29T09:02:56.854Z,819.00
2024-02-29T09:03:56.856Z,771.00
2024-02-29T09:04:56.829Z,724.00
2024-02-29T09:05:56.807Z,666.00
2024-02-29T09:06:56.789Z,652.00
2024-02-29T09:07:56.774Z,639.00
2024-02-29T09:08:56.778Z,628.00
2024-02-29T09:09:56.782Z,627.00
2024-02-29T09:10:56.781Z,639.00
2024-02-29T09:11:56.702Z,656.00
2024-02-29T09:12:56.717Z,708.00
2024-02-29T09:13:56.709Z,751.00
2024-02-29T09:14:56.650Z,777.00
2024-02-29T09:15:56.679Z,791.00
2024-02-29T09:16:56.622Z,792.00
2024-02-29T09:17:56.706Z,802.00
2024-02-29T09:18:56.635Z,788.00
2024-02-29T09:19:56.587Z,782.00
2024-02-29T09:20:56.532Z,761.00
2024-02-29T09:21:56.535Z,749.00
2024-02-29T09:22:56.495Z,720.00
2024-02-29T09:23:56.484Z,704.00
2024-02-29T09:24:56.533Z,666.00
2024-02-29T09:25:56.471Z,652.00
2024-02-29T09:26:56.441Z,640.00
2024-02-29T09:27:56.433Z,640.00
2024-02-29T09:28:56.400Z,640.00
2024-02-29T09:29:58.423Z,634.00
2024-02-29T09:30:56.380Z,630.00
2024-02-29T09:31:56.364Z,631.00
2024-02-29T09:32:57.113Z,629.00
2024-02-29T09:33:57.640Z,625.00
2024-02-29T09:34:56.633Z,624.00
2024-02-29T09:35:56.674Z,616.00
2024-02-29T09:36:56.786Z,611.00
2024-02-29T09:37:56.747Z,603.00
2024-02-29T09:38:56.805Z,600.00
2024-02-29T09:39:56.905Z,601.00
2024-02-29T09:41:03.180Z,607.00
2024-02-29T09:42:56.918Z,608.00
2024-02-29T09:43:56.853Z,611.00
2024-02-29T09:44:56.827Z,612.00
2024-02-29T09:45:56.838Z,619.00
2024-02-29T09:46:56.778Z,621.00
2024-02-29T09:47:56.824Z,625.00
2024-02-29T09:48:56.756Z,629.00
2024-02-29T09:50:01.837Z,629.00
2024-02-29T09:50:57.702Z,629.00
2024-02-29T09:51:56.726Z,630.00
2024-02-29T09:52:56.658Z,633.00
2024-02-29T09:53:56.639Z,637.00
2024-02-29T09:54:56.673Z,648.00
2024-02-29T09:55:56.591Z,656.00
2024-02-29T09:56:56.570Z,670.00
2024-02-29T09:57:56.537Z,693.00
2024-02-29T09:58:57.044Z,715.00
2024-02-29T09:59:56.479Z,737.00
2024-02-29T10:00:56.559Z,759.00
2024-02-29T10:01:56.527Z,776.00
2024-02-29T10:02:56.431Z,797.00
2024-02-29T10:03:56.475Z,809.00
2024-02-29T10:04:56.466Z,822.00
2024-02-29T10:05:56.478Z,838.00
2024-02-29T10:06:56.540Z,849.00
2024-02-29T10:07:57.132Z,853.00
2024-02-29T10:08:56.514Z,868.00
2024-02-29T10:09:56.593Z,870.00
2024-02-29T10:10:56.677Z,876.00
2024-02-29T10:11:56.588Z,879.00
2024-02-29T10:12:57.111Z,881.00
2024-02-29T10:13:56.574Z,882.00
2024-02-29T10:14:56.588Z,893.00
2024-02-29T10:15:56.626Z,899.00
2024-02-29T10:16:56.615Z,898.00
2024-02-29T10:17:56.678Z,894.00
2024-02-29T10:18:56.764Z,909.00
2024-02-29T10:19:56.668Z,910.00
2024-02-29T10:20:56.665Z,905.00
2024-02-29T10:21:56.712Z,897.00
2024-02-29T10:22:56.677Z,876.00
2024-02-29T10:23:56.686Z,882.00
2024-02-29T10:24:56.729Z,894.00
2024-02-29T10:25:57.636Z,883.00
2024-02-29T10:26:56.722Z,872.00
2024-02-29T10:27:56.760Z,856.00
2024-02-29T10:28:56.767Z,850.00
2024-02-29T10:29:56.776Z,835.00
2024-02-29T10:30:58.585Z,819.00
2024-02-29T10:31:56.798Z,805.00
2024-02-29T10:32:56.871Z,794.00
2024-02-29T10:33:56.879Z,788.00
2024-02-29T10:34:56.843Z,775.00
2024-02-29T10:35:57.665Z,770.00
2024-02-29T10:36:57.009Z,767.00
2024-02-29T10:37:56.868Z,768.00
2024-02-29T10:38:57.566Z,765.00
2024-02-29T10:39:56.888Z,770.00
2024-02-29T10:40:56.875Z,761.00
2024-02-29T10:41:56.942Z,756.00
2024-02-29T10:42:57.150Z,759.00
2024-02-29T10:43:56.869Z,768.00
2024-02-29T10:44:57.608Z,749.00
2024-02-29T10:45:56.886Z,739.00
2024-02-29T10:46:57.638Z,747.00
2024-02-29T10:47:56.885Z,752.00
2024-02-29T10:48:56.852Z,745.00
2024-02-29T10:49:56.808Z,746.00
2024-02-29T10:50:56.794Z,745.00
2024-02-29T10:51:56.804Z,751.00
2024-02-29T10:52:56.767Z,760.00
2024-02-29T10:53:56.747Z,748.00
2024-02-29T10:54:56.897Z,744.00
2024-02-29T10:55:56.711Z,744.00
2024-02-29T10:56:56.686Z,737.00
2024-02-29T10:57:56.682Z,751.00
2024-02-29T10:58:56.644Z,745.00
2024-02-29T10:59:56.632Z,740.00
2024-02-29T11:00:57.744Z,741.00
2024-02-29T11:01:56.694Z,743.00
2024-02-29T11:02:58.392Z,751.00
2024-02-29T11:03:56.548Z,754.00
2024-02-29T11:04:56.522Z,749.00
2024-02-29T11:05:56.512Z,743.00
2024-02-29T11:06:56.546Z,737.00
2024-02-29T11:07:56.443Z,744.00
2024-02-29T11:08:56.436Z,740.00
2024-02-29T11:09:56.449Z,735.00
2024-02-29T11:10:56.432Z,763.00
2024-02-29T11:11:56.381Z,839.00
2024-02-29T11:12:56.406Z,890.00
2024-02-29T11:13:56.364Z,920.00
2024-02-29T11:14:56.345Z,947.00
2024-02-29T11:15:56.351Z,951.00
2024-02-29T11:16:56.327Z,985.00
2024-02-29T11:17:56.369Z,990.00
2024-02-29T11:18:56.333Z,1003.00
2024-02-29T11:19:57.685Z,995.00
2024-02-29T11:20:56.298Z,997.00
2024-02-29T11:21:56.336Z,985.00
2024-02-29T11:23:56.283Z,966.00
2024-02-29T11:24:56.325Z,950.00
2024-02-29T11:25:56.347Z,927.00
2024-02-29T11:26:56.291Z,903.00
2024-02-29T11:27:56.331Z,893.00
2024-02-29T11:28:57.078Z,880.00
2024-02-29T11:29:56.323Z,867.00
2024-02-29T11:30:56.350Z,854.00
2024-02-29T11:31:56.338Z,842.00
2024-02-29T11:32:56.391Z,836.00
2024-02-29T11:33:56.382Z,826.00
2024-02-29T11:34:56.362Z,823.00
2024-02-29T11:35:56.397Z,825.00
2024-02-29T11:36:56.407Z,813.00
2024-02-29T11:37:57.353Z,792.00
2024-02-29T11:38:56.324Z,793.00
2024-02-29T11:39:56.324Z,781.00
2024-02-29T11:40:56.266Z,760.00
2024-02-29T11:41:56.238Z,759.00
2024-02-29T11:42:56.234Z,748.00
2024-02-29T11:43:56.162Z,730.00
2024-02-29T11:44:56.137Z,711.00
2024-02-29T11:45:56.155Z,696.00
2024-02-29T11:46:56.065Z,673.00
2024-02-29T11:47:56.058Z,662.00
2024-02-29T11:48:57.433Z,653.00
2024-02-29T11:49:56.000Z,640.00
2024-02-29T11:50:56.040Z,635.00
2024-02-29T11:51:56.186Z,631.00
2024-02-29T11:52:56.092Z,637.00
2024-02-29T11:53:56.127Z,643.00
2024-02-29T11:54:56.264Z,638.00
2024-02-29T11:56:02.851Z,641.00
2024-02-29T11:56:57.156Z,641.00
2024-02-29T11:57:56.165Z,639.00
2024-02-29T11:58:56.104Z,635.00
2024-02-29T11:59:56.742Z,627.00
2024-02-29T12:00:56.096Z,616.00
2024-02-29T12:01:56.069Z,616.00
2024-02-29T12:02:56.002Z,610.00
2024-02-29T12:03:56.019Z,609.00
2024-02-29T12:04:55.960Z,603.00
2024-02-29T12:05:55.912Z,600.00
2024-02-29T12:06:55.937Z,600.00
2024-02-29T12:07:55.963Z,601.00
2024-02-29T12:08:55.990Z,600.00
2024-02-29T12:09:56.070Z,603.00
2024-02-29T12:10:56.616Z,605.00
2024-02-29T12:11:56.595Z,604.00
2024-02-29T12:12:56.097Z,604.00
2024-02-29T12:13:56.111Z,608.00
2024-02-29T12:14:56.143Z,609.00
2024-02-29T12:15:56.314Z,600.00
2024-02-29T12:16:56.191Z,600.00
2024-02-29T12:17:57.189Z,600.00
2024-02-29T12:18:56.296Z,603.00
2024-02-29T12:19:56.320Z,620.00
2024-02-29T12:20:56.335Z,629.00
2024-02-29T12:21:56.377Z,632.00
2024-02-29T12:22:56.376Z,639.00
2024-02-29T12:23:56.397Z,651.00
2024-02-29T12:24:56.479Z,655.00
2024-02-29T12:25:56.433Z,661.00
2024-02-29T12:26:56.439Z,660.00
2024-02-29T12:27:56.468Z,671.00
2024-02-29T12:28:56.468Z,707.00
2024-02-29T12:29:56.450Z,731.00